LRCL/CLJ METAR and TAF weather

Enter ICAO airport designator
Station Type Date Time Source
LRCL METAR 2022/05/24 11:00 UTC NOAA

LRCL 241100Z VRB04KT CAVOK 21/06 Q1011


Station Type Date Time Source
LRCL Decoded METAR 2022/05/24 11:00 UTC NOAA

Cluj-Napoca, Romania (LRCL) 46-47N 023-34E 413M
May 24, 2022 - 07:00 AM EDT / 2022.05.24 1100 UTC
Wind: Variable at 5 MPH (4 KT):0
Visibility: greater than 7 mile(s):0
Temperature: 69 F (21 C)
Dew Point: 42 F (6 C)
Relative Humidity: 37%
Pressure (altimeter): 29.85 in. Hg (1011 hPa)
ob: LRCL 241100Z VRB04KT CAVOK 21/06 Q1011
cycle: 11

Station Type Date Time Source
LRCL TAF 2007/05/23 16:57 UTC NOAA

TAF
AMD LRCL 231657Z 231607 VRB02MPS 9999 SCT030 BKN080
TEMPO 1719 VRB15G20MPS 1500 TSRAGR SCT010 BKN020CB OVC080

Example: see airport list